.
WxDataArchive / Data Records for 2013-01-07
2013-01-06 January 2013 2013-01-08

Data Records for Monday, 07 January 2013

Time	Temp	Chill	HIndex	Humid	Dewpt	 Wind 	HiWind	WindDir	Rain 	Barom 
-----	----	-----	------	-----	-----	------	------	-------	-----	----- 
00:00	30.3	30.3	30.3	81	25.2	0	2	248	0.00	30.325 
00:05	30.3	30.3	30.3	81	25.2	0	3	248	0.00	30.325 
00:10	30.3	30.3	30.3	81	25.2	0	2	248	0.00	30.325 
00:15	30.3	30.3	30.3	81	25.2	0	2	248	0.00	30.336 
00:20	30.3	30.3	30.3	81	25.2	0	2	248	0.00	30.336 
00:25	30.3	30.3	30.3	81	25.2	0	2	248	0.00	30.336 
00:30	30.3	30.3	30.3	81	25.2	0	3	248	0.00	30.339 
00:35	30.3	30.3	30.3	81	25.2	1	3	248	0.00	30.339 
00:40	30.3	30.3	30.3	81	25.2	0	1	248	0.00	30.339 
00:45	30.3	30.3	30.3	81	25.2	0	1	248	0.00	30.331 
00:50	30.3	30.3	30.3	81	25.2	0	1	248	0.00	30.331 
00:55	30.3	30.3	30.3	81	25.2	0	1	248	0.00	30.331 
01:00	30.1	30.1	30.1	81	25.0	0	2	248	0.00	30.331 
01:05	30.1	30.1	30.1	81	25.0	0	1	248	0.00	30.331 
01:10	30.1	30.1	30.1	81	25.0	0	2	248	0.00	30.331 
01:15	30.1	30.1	30.1	81	25.0	0	2	248	0.00	30.343 
01:20	30.1	30.1	30.1	81	25.0	0	0	---	0.00	30.343 
01:25	30.1	30.1	30.1	81	25.0	0	1	248	0.00	30.343 
01:30	30.0	30.0	30.0	82	25.2	0	0	---	0.00	30.338 
01:35	30.0	30.0	30.0	82	25.2	0	0	---	0.00	30.338 
01:40	30.0	30.0	30.0	82	25.2	0	0	---	0.00	30.338 
01:45	30.0	30.0	30.0	82	25.2	0	1	248	0.00	30.339 
01:50	29.8	29.8	29.8	82	25.0	0	0	---	0.00	30.339 
01:55	29.8	29.8	29.8	82	25.0	0	1	248	0.00	30.339 
02:00	29.8	29.8	29.8	82	25.0	0	2	248	0.00	30.343 
02:05	29.8	29.8	29.8	82	25.0	0	1	248	0.00	30.343 
02:10	29.8	29.8	29.8	82	25.0	0	1	248	0.00	30.343 
02:15	29.7	29.7	29.7	82	24.9	0	1	248	0.00	30.345 
02:20	29.7	29.7	29.7	82	24.9	0	1	248	0.00	30.345 
02:25	29.7	29.7	29.7	82	24.9	0	2	248	0.00	30.345 
02:30	29.7	29.7	29.7	82	24.9	0	1	248	0.00	30.358 
02:35	29.7	29.7	29.7	82	24.9	0	2	248	0.00	30.358 
02:40	29.7	29.7	29.7	82	24.9	0	2	248	0.00	30.358 
02:45	29.7	29.7	29.7	82	24.9	0	1	248	0.00	30.361 
02:50	29.7	29.7	29.7	82	24.9	0	1	248	0.00	30.361 
02:55	29.7	29.7	29.7	82	24.9	0	1	248	0.00	30.361 
03:00	29.7	29.7	29.7	82	24.9	0	1	248	0.00	30.361 
03:05	29.7	29.7	29.7	82	24.9	0	1	248	0.00	30.361 
03:10	29.7	29.7	29.7	82	24.9	0	2	248	0.00	30.361 
03:15	29.5	29.5	29.5	82	24.7	0	2	248	0.00	30.361 
03:20	29.5	29.5	29.5	82	24.7	0	1	248	0.00	30.361 
03:25	29.5	29.5	29.5	82	24.7	0	2	248	0.00	30.361 
03:30	29.5	29.5	29.5	82	24.7	0	1	248	0.00	30.372 
03:35	29.5	29.5	29.5	82	24.7	0	2	248	0.00	30.372 
03:40	29.5	29.5	29.5	82	24.7	0	3	248	0.00	30.372 
03:45	29.5	29.5	29.5	82	24.7	1	3	248	0.00	30.374 
03:50	29.5	29.5	29.5	82	24.7	0	2	248	0.00	30.374 
03:55	29.5	29.5	29.5	82	24.7	0	1	248	0.00	30.374 
04:00	29.4	29.4	29.4	82	24.6	0	3	248	0.00	30.374 
04:05	29.4	29.4	29.4	82	24.6	0	2	248	0.00	30.374 
04:10	29.3	29.3	29.3	82	24.5	0	1	248	0.00	30.374 
04:15	29.3	29.3	29.3	82	24.5	0	1	248	0.00	30.376 
04:20	29.3	29.3	29.3	82	24.5	0	0	---	0.00	30.376 
04:25	29.1	29.1	29.1	82	24.3	0	2	248	0.00	30.376 
04:30	29.1	29.1	29.1	82	24.3	0	1	248	0.00	30.391 
04:35	29.0	29.0	29.0	82	24.2	0	1	248	0.00	30.391 
04:40	29.0	29.0	29.0	82	24.2	0	1	248	0.00	30.391 
04:45	28.8	28.8	28.8	82	24.0	0	2	248	0.00	30.393 
04:50	28.7	28.7	28.7	82	23.9	1	2	248	0.00	30.393 
04:55	28.4	28.4	28.4	81	23.3	1	2	248	0.00	30.393 
05:00	28.2	28.2	28.2	81	23.1	1	2	248	0.00	30.387 
05:05	28.1	28.1	28.1	81	23.0	0	2	248	0.00	30.387 
05:10	27.9	27.9	27.9	81	22.8	0	1	248	0.00	30.387 
05:15	27.8	27.8	27.8	81	22.7	0	1	248	0.00	30.394 
05:20	27.6	27.6	27.6	81	22.5	0	1	248	0.00	30.394 
05:25	27.3	27.3	27.3	81	22.3	0	0	---	0.00	30.394 
05:30	27.2	27.2	27.2	82	22.4	0	0	---	0.00	30.387 
05:35	27.0	27.0	27.0	82	22.3	0	2	248	0.00	30.387 
05:40	26.7	26.7	26.7	82	22.0	0	1	248	0.00	30.387 
05:45	26.4	26.4	26.4	82	21.7	0	1	248	0.00	30.389 
05:50	26.3	26.3	26.3	82	21.6	0	1	248	0.00	30.389 
05:55	26.0	26.0	26.0	82	21.3	0	2	248	0.00	30.389 
06:00	25.7	25.7	25.7	82	21.0	0	2	248	0.00	30.391 
06:05	25.6	25.6	25.6	83	21.2	0	2	248	0.00	30.391 
06:10	25.4	25.4	25.4	83	21.0	0	0	---	0.00	30.391 
06:15	25.1	25.1	25.1	83	20.7	0	0	---	0.00	30.400 
06:20	24.8	24.8	24.8	83	20.4	0	1	248	0.00	30.400 
06:25	24.7	24.7	24.7	83	20.3	0	0	---	0.00	30.400 
06:30	24.4	24.4	24.4	84	20.3	0	1	248	0.00	30.411 
06:35	24.2	24.2	24.2	84	20.1	0	0	---	0.00	30.411 
06:40	24.1	24.1	24.1	84	20.0	0	0	---	0.00	30.411 
06:45	23.9	23.9	23.9	84	19.8	0	1	248	0.00	30.417 
06:50	23.9	23.9	23.9	84	19.8	0	1	248	0.00	30.417 
06:55	23.8	23.8	23.8	85	20.0	0	1	248	0.00	30.417 
07:00	23.8	23.8	23.8	85	20.0	0	1	248	0.00	30.424 
07:05	23.6	23.6	23.6	85	19.8	0	0	---	0.00	30.424 
07:10	23.3	23.3	23.3	85	19.5	0	0	---	0.00	30.424 
07:15	23.0	23.0	23.0	85	19.2	0	0	---	0.00	30.423 
07:20	22.9	22.9	22.9	85	19.1	0	1	248	0.00	30.423 
07:25	22.5	22.5	22.5	85	18.7	0	0	---	0.00	30.423 
07:30	22.2	22.2	22.2	85	18.4	0	0	---	0.00	30.431 
07:35	22.2	22.2	22.2	86	18.7	0	0	---	0.00	30.431 
07:40	21.9	21.9	21.9	86	18.4	0	0	---	0.00	30.431 
07:45	21.9	21.9	21.9	86	18.4	0	1	248	0.00	30.432 
07:50	21.9	21.9	21.9	86	18.4	0	1	248	0.00	30.432 
07:55	21.8	21.8	21.8	87	18.5	0	1	248	0.00	30.432 
08:00	21.9	21.9	21.9	87	18.6	0	0	---	0.00	30.435 
08:05	21.9	21.9	21.9	87	18.6	0	1	248	0.00	30.435 
08:10	21.9	21.9	21.9	87	18.6	0	1	248	0.00	30.435 
08:15	21.9	21.9	21.9	87	18.6	0	1	248	0.00	30.435 
08:20	21.9	21.9	21.9	88	18.9	0	2	248	0.00	30.435 
08:25	21.9	21.9	21.9	88	18.9	0	2	248	0.00	30.435 
08:30	21.9	21.9	21.9	88	18.9	0	1	248	0.00	30.436 
08:35	21.8	21.8	21.8	88	18.8	0	1	248	0.00	30.436 
08:40	21.6	21.6	21.6	88	18.6	0	0	---	0.00	30.436 
08:45	21.4	21.4	21.4	88	18.4	0	0	---	0.00	30.437 
08:50	21.4	21.4	21.4	88	18.4	0	1	248	0.00	30.437 
08:55	21.6	21.6	21.6	88	18.6	0	2	248	0.00	30.437 
09:00	21.8	21.8	21.8	88	18.8	0	1	248	0.00	30.442 
09:05	21.9	21.9	21.9	88	18.9	0	1	248	0.00	30.442 
09:10	22.1	22.1	22.1	88	19.1	0	1	248	0.00	30.442 
09:15	22.2	22.2	22.2	88	19.2	0	2	248	0.00	30.443 
09:20	22.5	22.5	22.5	88	19.5	0	1	248	0.00	30.443 
09:25	22.7	22.7	22.7	88	19.7	0	2	248	0.00	30.443 
09:30	22.9	22.9	22.9	88	19.9	0	1	248	0.00	30.440 
09:35	23.2	23.2	23.2	88	20.2	0	1	248	0.00	30.440 
09:40	23.5	23.5	23.5	88	20.5	0	2	248	0.00	30.440 
09:45	23.8	23.8	23.8	88	20.8	0	2	248	0.00	30.440 
09:50	23.9	23.9	23.9	87	20.6	0	2	248	0.00	30.440 
09:55	24.2	24.2	24.2	87	20.9	0	2	315	0.00	30.440 
10:00	24.4	24.4	24.4	86	20.8	0	2	315	0.00	30.440 
10:05	24.7	24.7	24.7	86	21.1	0	1	315	0.00	30.440 
10:10	25.0	25.0	25.0	85	21.1	0	3	292	0.00	30.440 
10:15	25.3	25.3	25.3	85	21.4	0	2	292	0.00	30.440 
10:20	25.6	25.6	25.6	84	21.5	0	3	68	0.00	30.440 
10:25	25.8	25.8	25.8	83	21.4	1	4	248	0.00	30.440 
10:30	26.1	26.1	26.1	82	21.4	0	1	248	0.00	30.433 
10:35	26.4	26.4	26.4	81	21.4	0	2	248	0.00	30.433 
10:40	26.6	26.6	26.6	80	21.3	0	3	248	0.00	30.433 
10:45	26.9	26.9	26.9	80	21.6	1	3	270	0.00	30.427 
10:50	27.2	27.2	27.2	79	21.6	1	4	248	0.00	30.427 
10:55	27.5	27.5	27.5	79	21.9	0	3	248	0.00	30.427 
11:00	27.9	27.9	27.9	78	21.9	0	3	248	0.00	30.424 
11:05	28.2	28.2	28.2	77	21.9	1	3	248	0.00	30.424 
11:10	28.5	28.5	28.5	75	21.6	1	4	248	0.00	30.424 
11:15	28.8	28.8	28.8	75	21.9	0	2	248	0.00	30.424 
11:20	29.1	29.1	29.1	74	21.9	0	3	248	0.00	30.424 
11:25	29.4	29.4	29.4	74	22.2	1	5	248	0.00	30.424 
11:30	29.5	29.5	29.5	73	21.9	1	4	270	0.00	30.420 
11:35	29.8	29.8	29.8	73	22.2	1	5	270	0.00	30.420 
11:40	30.1	30.1	30.1	72	22.2	1	3	135	0.00	30.420 
11:45	30.1	30.1	30.1	72	22.2	1	3	112	0.00	30.406 
11:50	30.1	30.1	30.1	71	21.9	1	3	225	0.00	30.406 
11:55	30.3	30.3	30.3	72	22.4	1	3	225	0.00	30.406 
12:00	30.4	30.4	30.4	71	22.1	1	5	225	0.00	30.393 
12:05	30.6	30.6	30.6	71	22.3	1	5	248	0.00	30.393 
12:10	30.7	30.7	30.7	71	22.4	1	2	0	0.00	30.393 
12:15	30.9	30.9	30.9	70	22.3	1	7	90	0.00	30.382 
12:20	31.0	31.0	31.0	70	22.4	1	5	248	0.00	30.382 
12:25	31.2	31.2	31.2	69	22.2	2	5	248	0.00	30.382 
12:30	31.5	31.5	31.5	69	22.5	1	5	248	0.00	30.372 
12:35	31.8	31.8	31.8	69	22.8	1	4	248	0.00	30.372 
12:40	31.8	31.8	31.8	69	22.8	1	6	248	0.00	30.372 
12:45	32.1	32.1	32.1	69	23.1	1	3	248	0.00	30.358 
12:50	32.2	32.2	32.2	69	23.2	1	7	225	0.00	30.358 
12:55	32.2	32.2	32.2	68	22.8	1	4	225	0.00	30.358 
13:00	32.2	32.2	32.2	68	22.8	1	7	248	0.00	30.348 
13:05	32.2	32.2	32.2	68	22.8	1	6	248	0.00	30.348 
13:10	32.2	32.2	32.2	68	22.8	1	4	248	0.00	30.348 
13:15	32.4	32.4	32.4	68	23.0	2	5	248	0.00	30.344 
13:20	32.5	32.5	32.5	68	23.1	1	5	270	0.00	30.344 
13:25	32.7	32.7	32.7	68	23.3	1	3	248	0.00	30.344 
13:30	32.7	32.7	32.7	68	23.3	2	9	248	0.00	30.335 
13:35	32.5	32.5	32.5	68	23.1	1	6	248	0.00	30.335 
13:40	32.7	32.7	32.7	69	23.7	1	4	315	0.00	30.335 
13:45	32.7	32.7	32.7	68	23.3	3	9	248	0.00	30.333 
13:50	32.8	32.8	32.8	68	23.4	2	6	248	0.00	30.333 
13:55	32.9	32.9	32.9	68	23.5	2	6	248	0.00	30.333 
14:00	32.9	32.9	32.9	68	23.5	2	5	248	0.00	30.326 
14:05	32.9	32.9	32.9	68	23.5	2	6	248	0.00	30.326 
14:10	32.9	32.9	32.9	68	23.5	3	10	248	0.00	30.326 
14:15	32.9	32.9	32.9	68	23.5	2	5	68	0.00	30.320 
14:20	33.2	33.2	33.2	68	23.8	1	5	248	0.00	30.320 
14:25	33.4	33.4	33.4	68	24.0	2	6	248	0.00	30.320 
14:30	33.4	33.4	33.4	68	24.0	2	10	248	0.00	30.310 
14:35	33.5	33.5	33.5	69	24.4	1	3	248	0.00	30.310 
14:40	33.7	33.7	33.7	68	24.3	2	6	248	0.00	30.310 
14:45	34.0	34.0	34.0	68	24.6	1	4	248	0.00	30.305 
14:50	34.0	34.0	34.0	68	24.6	2	7	112	0.00	30.305 
14:55	34.0	34.0	34.0	67	24.2	2	7	112	0.00	30.305 
15:00	33.8	33.8	33.8	67	24.0	2	10	248	0.00	30.299 
15:05	33.8	33.8	33.8	68	24.4	1	5	248	0.00	30.299 
15:10	34.0	34.0	34.0	67	24.2	2	9	248	0.00	30.299 
15:15	34.1	34.1	34.1	67	24.3	2	7	248	0.00	30.297 
15:20	33.8	33.8	33.8	67	24.0	2	7	68	0.00	30.297 
15:25	34.0	34.0	34.0	68	24.6	2	6	248	0.00	30.297 
15:30	34.1	34.1	34.1	67	24.3	2	6	248	0.00	30.293 
15:35	34.3	34.3	34.3	67	24.5	1	4	248	0.00	30.293 
15:40	34.6	34.6	34.6	66	24.4	1	3	248	0.00	30.293 
15:45	34.6	34.6	34.6	65	24.1	3	8	248	0.00	30.285 
15:50	34.6	34.6	34.6	66	24.4	2	11	248	0.00	30.285 
15:55	34.4	34.4	34.4	66	24.2	2	6	248	0.00	30.285 
16:00	34.3	34.3	34.3	65	23.8	2	7	248	0.00	30.285 
16:05	34.1	34.1	34.1	65	23.6	2	7	248	0.00	30.285 
16:10	34.0	34.0	34.0	66	23.9	2	5	225	0.00	30.285 
16:15	33.8	33.8	33.8	66	23.7	2	6	270	0.00	30.280 
16:20	33.8	33.8	33.8	67	24.0	1	4	248	0.00	30.280 
16:25	33.7	33.7	33.7	67	23.9	1	5	68	0.00	30.280 
16:30	33.5	33.5	33.5	67	23.7	2	5	248	0.00	30.280 
16:35	33.5	33.5	33.5	68	24.1	2	5	248	0.00	30.280 
16:40	33.2	33.2	33.2	68	23.8	1	4	248	0.00	30.280 
16:45	33.2	33.2	33.2	68	23.8	1	3	248	0.00	30.281 
16:50	33.1	33.1	33.1	68	23.7	1	6	248	0.00	30.281 
16:55	32.9	32.9	32.9	68	23.5	1	4	225	0.00	30.281 
17:00	32.8	32.8	32.8	68	23.4	1	3	225	0.00	30.291 
17:05	32.7	32.7	32.7	68	23.3	1	5	225	0.00	30.291 
17:10	32.5	32.5	32.5	68	23.1	2	5	248	0.00	30.291 
17:15	32.4	32.4	32.4	69	23.4	1	6	248	0.00	30.286 
17:20	32.2	32.2	32.2	69	23.2	1	3	248	0.00	30.286 
17:25	31.9	31.9	31.9	69	22.9	1	4	248	0.00	30.286 
17:30	31.6	31.6	31.6	70	23.0	1	5	45	0.00	30.281 
17:35	31.5	31.5	31.5	70	22.9	1	4	248	0.00	30.281 
17:40	31.3	31.3	31.3	71	23.0	1	5	248	0.00	30.281 
17:45	31.0	31.0	31.0	71	22.7	1	4	248	0.00	30.279 
17:50	30.9	30.9	30.9	71	22.6	0	4	248	0.00	30.279 
17:55	30.7	30.7	30.7	72	22.8	0	3	248	0.00	30.279 
18:00	30.4	30.4	30.4	72	22.5	1	3	248	0.00	30.273 
18:05	30.3	30.3	30.3	72	22.4	1	4	248	0.00	30.273 
18:10	30.1	30.1	30.1	73	22.5	1	3	248	0.00	30.273 
18:15	30.0	30.0	30.0	73	22.4	1	2	248	0.00	30.270 
18:20	29.8	29.8	29.8	73	22.2	0	2	248	0.00	30.270 
18:25	29.7	29.7	29.7	73	22.1	0	2	248	0.00	30.270 
18:30	29.5	29.5	29.5	73	21.9	0	1	248	0.00	30.273 
18:35	29.4	29.4	29.4	74	22.2	0	2	248	0.00	30.273 
18:40	29.1	29.1	29.1	74	21.9	0	2	248	0.00	30.273 
18:45	29.0	29.0	29.0	74	21.8	0	1	248	0.00	30.275 
18:50	28.8	28.8	28.8	74	21.6	0	2	248	0.00	30.275 
18:55	28.5	28.5	28.5	75	21.6	0	1	248	0.00	30.275 
19:00	28.4	28.4	28.4	75	21.5	0	1	248	0.00	30.271 
19:05	28.2	28.2	28.2	75	21.3	0	1	248	0.00	30.271 
19:10	28.1	28.1	28.1	75	21.2	0	0	---	0.00	30.271 
19:15	27.9	27.9	27.9	75	21.0	0	0	---	0.00	30.274 
19:20	27.8	27.8	27.8	76	21.2	0	3	248	0.00	30.274 
19:25	27.6	27.6	27.6	76	21.0	0	1	248	0.00	30.274 
19:30	27.6	27.6	27.6	76	21.0	0	0	---	0.00	30.272 
19:35	27.5	27.5	27.5	77	21.3	0	2	248	0.00	30.272 
19:40	27.5	27.5	27.5	76	20.9	0	2	248	0.00	30.272 
19:45	27.5	27.5	27.5	77	21.3	0	1	248	0.00	30.259 
19:50	27.3	27.3	27.3	77	21.1	0	2	248	0.00	30.259 
19:55	27.5	27.5	27.5	77	21.3	0	1	248	0.00	30.259 
20:00	27.5	27.5	27.5	77	21.3	0	2	248	0.00	30.247 
20:05	27.5	27.5	27.5	77	21.3	0	1	248	0.00	30.247 
20:10	27.3	27.3	27.3	77	21.1	0	1	248	0.00	30.247 
20:15	27.2	27.2	27.2	77	21.0	0	1	248	0.00	30.255 
20:20	27.2	27.2	27.2	77	21.0	0	0	---	0.00	30.255 
20:25	27.2	27.2	27.2	78	21.3	0	2	248	0.00	30.255 
20:30	27.2	27.2	27.2	78	21.3	0	1	248	0.00	30.248 
20:35	27.2	27.2	27.2	78	21.3	0	2	248	0.00	30.248 
20:40	27.2	27.2	27.2	78	21.3	0	1	248	0.00	30.248 
20:45	27.2	27.2	27.2	78	21.3	0	1	248	0.00	30.251 
20:50	27.2	27.2	27.2	78	21.3	0	2	248	0.00	30.251 
20:55	27.2	27.2	27.2	78	21.3	0	1	248	0.00	30.251 
21:00	27.0	27.0	27.0	78	21.1	0	2	248	0.00	30.240 
21:05	27.0	27.0	27.0	78	21.1	0	2	248	0.00	30.240 
21:10	26.9	26.9	26.9	78	21.0	0	2	248	0.00	30.240 
21:15	26.9	26.9	26.9	78	21.0	0	1	248	0.00	30.241 
21:20	26.9	26.9	26.9	78	21.0	0	1	248	0.00	30.241 
21:25	26.9	26.9	26.9	79	21.3	0	2	248	0.00	30.241 
21:30	26.9	26.9	26.9	79	21.3	0	2	248	0.00	30.242 
21:35	26.9	26.9	26.9	79	21.3	0	2	248	0.00	30.242 
21:40	26.7	26.7	26.7	79	21.1	0	1	248	0.00	30.242 
21:45	26.6	26.6	26.6	79	21.0	0	2	248	0.00	30.229 
21:50	26.6	26.6	26.6	79	21.0	0	1	248	0.00	30.229 
21:55	26.4	26.4	26.4	79	20.8	0	1	248	0.00	30.229 
22:00	26.4	26.4	26.4	80	21.1	0	2	248	0.00	30.240 
22:05	26.6	26.6	26.6	80	21.3	0	2	248	0.00	30.240 
22:10	26.6	26.6	26.6	80	21.3	0	1	248	0.00	30.240 
22:15	26.6	26.6	26.6	80	21.3	0	1	248	0.00	30.232 
22:20	26.6	26.6	26.6	80	21.3	0	1	248	0.00	30.232 
22:25	26.6	26.6	26.6	80	21.3	0	2	248	0.00	30.232 
22:30	26.4	26.4	26.4	80	21.1	0	1	248	0.00	30.225 
22:35	26.3	26.3	26.3	80	21.0	0	2	248	0.00	30.225 
22:40	26.1	26.1	26.1	80	20.8	0	1	248	0.00	30.225 
22:45	26.0	26.0	26.0	80	20.7	0	1	248	0.00	30.223 
22:50	25.8	25.8	25.8	80	20.5	0	1	248	0.00	30.223 
22:55	25.7	25.7	25.7	80	20.4	0	1	248	0.00	30.223 
23:00	25.7	25.7	25.7	81	20.7	0	1	248	0.00	30.221 
23:05	25.7	25.7	25.7	81	20.7	0	1	248	0.00	30.221 
23:10	25.7	25.7	25.7	81	20.7	0	1	248	0.00	30.221 
23:15	25.7	25.7	25.7	81	20.7	0	3	248	0.00	30.208 
23:20	25.7	25.7	25.7	81	20.7	1	3	248	0.00	30.208 
23:25	25.7	25.7	25.7	81	20.7	0	1	248	0.00	30.208 
23:30	25.8	25.8	25.8	81	20.8	0	3	248	0.00	30.206 
23:35	25.8	25.8	25.8	81	20.8	0	3	248	0.00	30.206 
23:40	25.8	25.8	25.8	82	21.1	0	2	248	0.00	30.206 
23:45	25.8	25.8	25.8	82	21.1	0	2	248	0.00	30.205 
23:50	26.0	26.0	26.0	82	21.3	0	2	248	0.00	30.205 
23:55	26.1	26.1	26.1	82	21.4	0	2	248	0.00	30.205 

CoCoRaHS
IN-AL-39
A2 Web Hosting
Creative Commons License
GoDaddy
search engine by freefind advanced

loaded 2018-11-18 11:05:29 • last modified 2010-11-18 10:43:29
Privacy PolicyDisclaimer
• wx.awcolley.com is powered by PmWiki v.2002016 •
• all content (unless otherwise noted) © 2018 A W Colley